Time;durP1;ratioP1;P1;durP2;ratioP2;P2;SDS_P1;SDS_P2;PMS_P1;PMS_P2;Temp;Humidity;BMP_temperature;BMP_pressure;BME280_temperature;BME280_humidity;BME280_pressure;Samples;Min_cycle;Max_cycle;Signal;HPM_P1;HPM_P2
2021/09/30 00:02:04;;;;;;;0.10;0.10;;;;;;;;;;5051792;28;20490;-65
2021/09/30 00:04:30;;;;;;;0.10;0.10;;;;;;;;;;5063607;28;20203;-66
2021/09/30 00:06:56;;;;;;;0.10;0.10;;;;;;;;;;5057363;28;20228;-64
2021/09/30 00:09:23;;;;;;;0.10;0.10;;;;;;;;;;5055566;28;20219;-65
2021/09/30 00:11:54;;;;;;;0.10;0.10;;;;;;;;;;5049236;28;20207;-65
2021/09/30 00:14:24;;;;;;;0.10;0.10;;;;;;;;;;5052701;28;20274;-65
2021/09/30 00:17:18;;;;;;;1.60;1.53;;;;;;;;;;5057341;28;20208;-64
2021/09/30 00:33:35;;;;;;;0.10;0.10;;;;;;;;;;5062939;28;20203;-64
2021/09/30 00:36:08;;;;;;;0.10;0.10;;;;;;;;;;5046696;28;20224;-65
2021/09/30 00:41:24;;;;;;;0.10;0.10;;;;;;;;;;5057096;28;20239;-65
2021/09/30 00:49:27;;;;;;;0.10;0.10;;;;;;;;;;5062430;28;20266;-64
2021/09/30 00:51:59;;;;;;;0.10;0.10;;;;;;;;;;5048891;28;20402;-64
2021/09/30 01:19:56;;;;;;;0.10;0.10;;;;;;;;;;5062440;28;20231;-65
2021/09/30 01:58:26;;;;;;;0.10;0.10;;;;;;;;;;5064150;28;20210;-64
2021/09/30 02:20:52;;;;;;;0.10;0.10;;;;;;;;;;5046611;28;20410;-64
2021/09/30 02:23:49;;;;;;;0.10;0.10;;;;;;;;;;5055289;28;20276;-64
2021/09/30 02:29:25;;;;;;;0.10;0.10;;;;;;;;;;4990543;28;20376;-65
2021/09/30 02:35:05;;;;;;;0.10;0.10;;;;;;;;;;5060177;28;20191;-66
2021/09/30 02:59:44;;;;;;;0.10;0.10;;;;;;;;;;5036510;28;20209;-65
2021/09/30 03:02:11;;;;;;;0.10;0.10;;;;;;;;;;5050990;28;20515;-64
2021/09/30 03:04:38;;;;;;;0.10;0.10;;;;;;;;;;5052470;28;20210;-65
2021/09/30 03:07:07;;;;;;;0.10;0.10;;;;;;;;;;5063399;28;20218;-64
2021/09/30 03:09:38;;;;;;;0.10;0.10;;;;;;;;;;5053720;28;20238;-64
2021/09/30 03:12:06;;;;;;;0.10;0.10;;;;;;;;;;5062287;28;20197;-64
2021/09/30 03:14:38;;;;;;;0.10;0.10;;;;;;;;;;5054623;28;20414;-65
2021/09/30 03:17:05;;;;;;;0.10;0.10;;;;;;;;;;5061789;28;20279;-65
2021/09/30 03:19:48;;;;;;;0.10;0.10;;;;;;;;;;5064164;28;20213;-65
2021/09/30 03:22:15;;;;;;;0.10;0.10;;;;;;;;;;5058552;28;20292;-65
2021/09/30 03:24:43;;;;;;;0.10;0.10;;;;;;;;;;5059901;28;20434;-65
2021/09/30 03:27:10;;;;;;;0.10;0.10;;;;;;;;;;5058496;28;20206;-66
2021/09/30 03:29:36;;;;;;;0.10;0.10;;;;;;;;;;5059175;28;20222;-64
2021/09/30 03:32:03;;;;;;;0.10;0.10;;;;;;;;;;5056937;28;20202;-64
2021/09/30 03:34:30;;;;;;;0.10;0.10;;;;;;;;;;5059385;28;20584;-64
2021/09/30 03:36:56;;;;;;;0.10;0.10;;;;;;;;;;5053977;28;20206;-64
2021/09/30 03:39:24;;;;;;;0.10;0.10;;;;;;;;;;5058834;28;20203;-64
2021/09/30 03:41:50;;;;;;;0.10;0.10;;;;;;;;;;5058575;28;20485;-65
2021/09/30 03:44:16;;;;;;;0.10;0.10;;;;;;;;;;5061172;28;20246;-64
2021/09/30 03:46:44;;;;;;;0.10;0.10;;;;;;;;;;5057025;28;20257;-64
2021/09/30 03:49:12;;;;;;;0.10;0.10;;;;;;;;;;5051984;28;20243;-64
2021/09/30 03:51:50;;;;;;;0.10;0.10;;;;;;;;;;5050236;28;20202;-65
2021/09/30 03:54:23;;;;;;;0.10;0.10;;;;;;;;;;5061589;28;20436;-64
2021/09/30 03:57:02;;;;;;;0.10;0.10;;;;;;;;;;5063773;28;20531;-64
2021/09/30 03:59:27;;;;;;;0.10;0.10;;;;;;;;;;5063582;28;20211;-63
2021/09/30 04:01:57;;;;;;;0.10;0.10;;;;;;;;;;5062956;28;20268;-64
2021/09/30 04:04:26;;;;;;;0.10;0.10;;;;;;;;;;5063492;28;20255;-65
2021/09/30 04:06:52;;;;;;;0.10;0.10;;;;;;;;;;5063565;28;20283;-65
2021/09/30 04:09:23;;;;;;;0.10;0.10;;;;;;;;;;5063675;28;20578;-64
2021/09/30 04:11:51;;;;;;;0.10;0.10;;;;;;;;;;5057505;28;20197;-66
2021/09/30 04:14:17;;;;;;;0.10;0.10;;;;;;;;;;5063807;28;20292;-66
2021/09/30 04:16:47;;;;;;;0.17;0.17;;;;;;;;;;5063483;28;20244;-66
2021/09/30 04:19:14;;;;;;;0.10;0.10;;;;;;;;;;5063742;28;20228;-65
2021/09/30 04:21:40;;;;;;;0.10;0.10;;;;;;;;;;5062806;28;20304;-65
2021/09/30 04:24:07;;;;;;;0.10;0.10;;;;;;;;;;5063179;28;20525;-65
2021/09/30 04:26:33;;;;;;;0.13;0.13;;;;;;;;;;5063573;28;20210;-64
2021/09/30 04:29:01;;;;;;;0.10;0.10;;;;;;;;;;5063072;28;20213;-64
2021/09/30 04:31:27;;;;;;;0.10;0.10;;;;;;;;;;5063703;28;20405;-64
2021/09/30 04:33:53;;;;;;;0.10;0.10;;;;;;;;;;5047188;28;20309;-64
2021/09/30 04:36:21;;;;;;;0.10;0.10;;;;;;;;;;5051151;28;20206;-64
2021/09/30 04:38:47;;;;;;;0.10;0.10;;;;;;;;;;5063114;28;20221;-65
2021/09/30 04:41:13;;;;;;;0.10;0.10;;;;;;;;;;5063077;28;20567;-65
2021/09/30 04:43:40;;;;;;;0.10;0.10;;;;;;;;;;5063125;28;20245;-64
2021/09/30 04:46:07;;;;;;;0.10;0.10;;;;;;;;;;5063224;28;20259;-63
2021/09/30 04:48:34;;;;;;;0.10;0.10;;;;;;;;;;5063164;28;20216;-65
2021/09/30 04:51:00;;;;;;;0.10;0.10;;;;;;;;;;5062924;28;20255;-65
2021/09/30 04:53:26;;;;;;;0.10;0.10;;;;;;;;;;5062953;28;20206;-64
2021/09/30 04:55:52;;;;;;;0.10;0.10;;;;;;;;;;5062855;28;20228;-64
2021/09/30 04:58:19;;;;;;;0.10;0.10;;;;;;;;;;5062753;28;20202;-65
2021/09/30 05:00:45;;;;;;;0.20;0.20;;;;;;;;;;5062661;28;20197;-65
2021/09/30 05:03:13;;;;;;;0.10;0.10;;;;;;;;;;5062580;28;20212;-65
2021/09/30 05:05:39;;;;;;;0.10;0.10;;;;;;;;;;5062654;28;20225;-65
2021/09/30 05:08:06;;;;;;;0.10;0.10;;;;;;;;;;5062605;28;20389;-65
2021/09/30 05:10:33;;;;;;;0.10;0.10;;;;;;;;;;5062526;28;20235;-66
2021/09/30 05:13:04;;;;;;;0.10;0.10;;;;;;;;;;5048444;28;20269;-65
2021/09/30 05:15:31;;;;;;;0.17;0.17;;;;;;;;;;5062493;28;20207;-64
2021/09/30 05:17:57;;;;;;;0.10;0.10;;;;;;;;;;5062370;28;20201;-64
2021/09/30 05:20:25;;;;;;;0.17;0.17;;;;;;;;;;5062372;28;20230;-65
2021/09/30 05:22:51;;;;;;;0.10;0.10;;;;;;;;;;5062530;28;20235;-64
2021/09/30 05:25:18;;;;;;;0.10;0.10;;;;;;;;;;5061319;28;20212;-64
2021/09/30 05:27:44;;;;;;;0.10;0.10;;;;;;;;;;5049773;28;20244;-64
2021/09/30 05:30:11;;;;;;;0.10;0.10;;;;;;;;;;5062801;28;20229;-64
2021/09/30 05:32:37;;;;;;;0.10;0.10;;;;;;;;;;5058182;28;20207;-65
2021/09/30 05:35:04;;;;;;;0.10;0.10;;;;;;;;;;5058360;28;20214;-65
2021/09/30 05:37:32;;;;;;;0.10;0.10;;;;;;;;;;5052435;28;20209;-65
2021/09/30 05:40:00;;;;;;;0.10;0.10;;;;;;;;;;5056619;28;20304;-65
2021/09/30 05:42:27;;;;;;;0.10;0.10;;;;;;;;;;5048676;28;20210;-65
2021/09/30 05:44:53;;;;;;;0.10;0.10;;;;;;;;;;5066651;28;20266;-64
2021/09/30 05:47:20;;;;;;;0.10;0.10;;;;;;;;;;5066407;28;20203;-64
2021/09/30 05:49:46;;;;;;;0.10;0.10;;;;;;;;;;5066159;28;20230;-65
2021/09/30 05:52:12;;;;;;;0.10;0.10;;;;;;;;;;5066560;28;20474;-64
2021/09/30 05:54:40;;;;;;;0.10;0.10;;;;;;;;;;5061319;28;20395;-64
2021/09/30 05:57:06;;;;;;;0.10;0.10;;;;;;;;;;5057221;28;20511;-65
2021/09/30 05:59:33;;;;;;;0.10;0.10;;;;;;;;;;5066313;28;20492;-64
2021/09/30 06:10:18;;;;;;;0.10;0.10;;;;;;;;;;5060221;28;20419;-65
2021/09/30 06:12:47;;;;;;;0.10;0.10;;;;;;;;;;5065499;28;20214;-65
2021/09/30 06:15:15;;;;;;;0.10;0.10;;;;;;;;;;5061971;28;20199;-65
2021/09/30 06:17:44;;;;;;;0.10;0.10;;;;;;;;;;5057199;28;20208;-65
2021/09/30 06:20:11;;;;;;;0.10;0.10;;;;;;;;;;5065550;28;20211;-64
2021/09/30 06:22:37;;;;;;;0.10;0.10;;;;;;;;;;5065564;28;20253;-65
2021/09/30 06:25:04;;;;;;;0.10;0.10;;;;;;;;;;5052248;28;20213;-65
2021/09/30 06:27:32;;;;;;;0.10;0.10;;;;;;;;;;5050859;28;20572;-65
2021/09/30 06:29:58;;;;;;;0.10;0.10;;;;;;;;;;5060860;28;20250;-65
2021/09/30 06:32:24;;;;;;;0.10;0.10;;;;;;;;;;5065451;28;20203;-65
2021/09/30 06:34:51;;;;;;;0.10;0.10;;;;;;;;;;5064624;28;20513;-65
2021/09/30 06:37:17;;;;;;;0.10;0.10;;;;;;;;;;5061372;28;20376;-65
2021/09/30 06:39:43;;;;;;;0.10;0.10;;;;;;;;;;5057260;28;20233;-65
2021/09/30 06:42:10;;;;;;;0.10;0.10;;;;;;;;;;5059419;28;20207;-65
2021/09/30 06:44:37;;;;;;;0.10;0.10;;;;;;;;;;5064627;28;20277;-65
2021/09/30 06:47:04;;;;;;;0.10;0.10;;;;;;;;;;5053085;28;20265;-65
2021/09/30 06:49:30;;;;;;;0.10;0.10;;;;;;;;;;5063165;28;20202;-64
2021/09/30 06:51:57;;;;;;;0.10;0.10;;;;;;;;;;5064767;28;20229;-64
2021/09/30 06:54:23;;;;;;;0.10;0.10;;;;;;;;;;5050947;28;20207;-65
2021/09/30 06:56:50;;;;;;;0.10;0.10;;;;;;;;;;5056239;28;20206;-66
2021/09/30 06:59:21;;;;;;;0.10;0.10;;;;;;;;;;5058901;28;20201;-65
2021/09/30 07:01:48;;;;;;;0.10;0.10;;;;;;;;;;5052616;28;20228;-65
2021/09/30 07:04:15;;;;;;;0.10;0.10;;;;;;;;;;5064713;28;20212;-65
2021/09/30 07:06:41;;;;;;;0.10;0.10;;;;;;;;;;5059204;28;20269;-65
2021/09/30 07:09:07;;;;;;;0.10;0.10;;;;;;;;;;5057177;28;20206;-64
2021/09/30 07:11:34;;;;;;;0.10;0.10;;;;;;;;;;5050900;28;20225;-65
2021/09/30 07:14:00;;;;;;;0.10;0.10;;;;;;;;;;5054683;28;20210;-64
2021/09/30 07:16:26;;;;;;;0.37;0.37;;;;;;;;;;5060510;28;20205;-64
2021/09/30 07:18:54;;;;;;;0.10;0.10;;;;;;;;;;5064705;28;20351;-64
2021/09/30 07:21:20;;;;;;;0.10;0.10;;;;;;;;;;5064534;28;20209;-66
2021/09/30 07:23:46;;;;;;;0.10;0.10;;;;;;;;;;5062122;28;20207;-65
2021/09/30 07:26:13;;;;;;;0.10;0.10;;;;;;;;;;5054822;28;20215;-65
2021/09/30 07:28:39;;;;;;;0.10;0.10;;;;;;;;;;5063353;28;20221;-64
2021/09/30 07:31:06;;;;;;;0.10;0.10;;;;;;;;;;5059368;28;20399;-66
2021/09/30 07:33:32;;;;;;;0.10;0.10;;;;;;;;;;5055115;28;20207;-64
2021/09/30 07:36:00;;;;;;;0.10;0.10;;;;;;;;;;5061864;28;20198;-64
2021/09/30 07:38:28;;;;;;;0.10;0.10;;;;;;;;;;5050778;28;20209;-65
2021/09/30 07:40:54;;;;;;;0.10;0.10;;;;;;;;;;5063939;28;20211;-65
2021/09/30 07:43:20;;;;;;;0.10;0.10;;;;;;;;;;5064485;28;20202;-65
2021/09/30 07:45:48;;;;;;;0.10;0.10;;;;;;;;;;5064098;28;20241;-65
2021/09/30 07:48:14;;;;;;;0.10;0.10;;;;;;;;;;5064104;28;20230;-64
2021/09/30 07:50:40;;;;;;;0.10;0.10;;;;;;;;;;5063902;28;20268;-65
2021/09/30 07:53:08;;;;;;;0.10;0.10;;;;;;;;;;5056094;28;20207;-64
2021/09/30 07:55:34;;;;;;;0.10;0.10;;;;;;;;;;5057146;28;20402;-66
2021/09/30 07:58:00;;;;;;;0.10;0.10;;;;;;;;;;5044557;28;20212;-65
2021/09/30 08:00:27;;;;;;;0.10;0.10;;;;;;;;;;5043978;28;20245;-66
2021/09/30 08:02:53;;;;;;;0.10;0.10;;;;;;;;;;5049241;28;20233;-66
2021/09/30 08:05:20;;;;;;;0.20;0.20;;;;;;;;;;5063697;28;20232;-65
2021/09/30 08:07:47;;;;;;;0.10;0.10;;;;;;;;;;5057022;28;20247;-64
2021/09/30 08:10:14;;;;;;;0.20;0.20;;;;;;;;;;5060508;28;20524;-65
2021/09/30 08:12:41;;;;;;;0.10;0.10;;;;;;;;;;5057329;28;20204;-66
2021/09/30 08:15:08;;;;;;;0.10;0.10;;;;;;;;;;5063588;28;20203;-64
2021/09/30 08:17:34;;;;;;;0.40;0.40;;;;;;;;;;5063727;28;20206;-65
2021/09/30 08:20:00;;;;;;;0.10;0.10;;;;;;;;;;5063426;28;20503;-65
2021/09/30 08:22:26;;;;;;;0.10;0.10;;;;;;;;;;5063493;28;20207;-65
2021/09/30 08:24:52;;;;;;;0.10;0.10;;;;;;;;;;5063594;28;20261;-64
2021/09/30 08:27:20;;;;;;;0.10;0.10;;;;;;;;;;5062973;28;20215;-66
2021/09/30 08:29:46;;;;;;;0.10;0.10;;;;;;;;;;5044667;28;20496;-65
2021/09/30 08:32:13;;;;;;;0.10;0.10;;;;;;;;;;5057420;28;20226;-64
2021/09/30 08:34:39;;;;;;;0.10;0.10;;;;;;;;;;5062321;28;20207;-65
2021/09/30 08:37:05;;;;;;;0.10;0.10;;;;;;;;;;5058386;28;20215;-64
2021/09/30 08:39:31;;;;;;;0.10;0.10;;;;;;;;;;5043476;28;20500;-66
2021/09/30 08:41:58;;;;;;;0.10;0.10;;;;;;;;;;5049696;28;20200;-65
2021/09/30 08:44:26;;;;;;;0.10;0.10;;;;;;;;;;5052751;28;20246;-66
2021/09/30 08:46:52;;;;;;;0.10;0.10;;;;;;;;;;5048868;28;20209;-65
2021/09/30 08:49:18;;;;;;;0.20;0.20;;;;;;;;;;5062772;28;20272;-65
2021/09/30 08:51:45;;;;;;;0.10;0.10;;;;;;;;;;5063227;28;20293;-64
2021/09/30 08:54:11;;;;;;;0.10;0.10;;;;;;;;;;5063131;28;20209;-66
2021/09/30 08:56:37;;;;;;;0.10;0.10;;;;;;;;;;5063101;28;20507;-65
2021/09/30 08:59:21;;;;;;;0.10;0.10;;;;;;;;;;5062981;28;20263;-66
2021/09/30 09:02:04;;;;;;;0.10;0.10;;;;;;;;;;5062516;28;20198;-64
2021/09/30 09:04:32;;;;;;;0.10;0.10;;;;;;;;;;5054529;28;20240;-64
2021/09/30 09:07:04;;;;;;;0.10;0.10;;;;;;;;;;5062041;28;20224;-64
2021/09/30 09:09:30;;;;;;;0.10;0.10;;;;;;;;;;5058131;28;20198;-65
2021/09/30 09:12:02;;;;;;;0.10;0.10;;;;;;;;;;5053943;28;20263;-64
2021/09/30 09:14:29;;;;;;;0.10;0.10;;;;;;;;;;5053691;28;20399;-63
2021/09/30 09:16:56;;;;;;;0.10;0.10;;;;;;;;;;5054624;28;20476;-64
2021/09/30 09:19:30;;;;;;;0.10;0.10;;;;;;;;;;5047925;28;20398;-64
2021/09/30 09:22:03;;;;;;;0.10;0.10;;;;;;;;;;5045907;28;20383;-64
2021/09/30 09:24:29;;;;;;;0.10;0.10;;;;;;;;;;5051682;28;20201;-63
2021/09/30 09:26:58;;;;;;;0.03;0.03;;;;;;;;;;5047093;28;20203;-64
2021/09/30 09:29:24;;;;;;;0.10;0.10;;;;;;;;;;5049200;28;20206;-65
2021/09/30 09:31:51;;;;;;;0.10;0.10;;;;;;;;;;5053059;28;20226;-64
2021/09/30 09:34:19;;;;;;;0.10;0.10;;;;;;;;;;5058065;28;20206;-63
2021/09/30 09:36:46;;;;;;;0.10;0.10;;;;;;;;;;5062689;28;20261;-64
2021/09/30 09:39:14;;;;;;;0.10;0.10;;;;;;;;;;5062218;28;20207;-65
2021/09/30 09:41:40;;;;;;;0.10;0.10;;;;;;;;;;5062577;28;20206;-65
2021/09/30 09:44:07;;;;;;;0.10;0.10;;;;;;;;;;5062447;28;20201;-64
2021/09/30 09:46:35;;;;;;;0.10;0.10;;;;;;;;;;5062331;28;20499;-64
2021/09/30 09:49:03;;;;;;;0.10;0.10;;;;;;;;;;5062235;28;20205;-64
2021/09/30 09:51:37;;;;;;;0.20;0.20;;;;;;;;;;5050239;28;20223;-64
2021/09/30 09:54:07;;;;;;;0.10;0.10;;;;;;;;;;5056168;28;20204;-63
2021/09/30 09:56:35;;;;;;;0.10;0.10;;;;;;;;;;5056328;28;20240;-64
2021/09/30 09:59:01;;;;;;;0.10;0.10;;;;;;;;;;5051153;28;20212;-64
2021/09/30 10:01:29;;;;;;;0.10;0.10;;;;;;;;;;5055226;28;20335;-63
2021/09/30 10:03:57;;;;;;;0.10;0.10;;;;;;;;;;5062426;28;20205;-63
2021/09/30 10:06:24;;;;;;;0.10;0.10;;;;;;;;;;5062145;28;20228;-63
2021/09/30 10:08:50;;;;;;;0.10;0.10;;;;;;;;;;5055157;28;20223;-63
2021/09/30 10:11:17;;;;;;;0.10;0.10;;;;;;;;;;5053441;28;20227;-63
2021/09/30 10:13:45;;;;;;;0.10;0.10;;;;;;;;;;5046849;28;20201;-65
2021/09/30 10:16:11;;;;;;;0.00;0.00;;;;;;;;;;5050429;28;20218;-66
2021/09/30 10:18:38;;;;;;;0.08;0.08;;;;;;;;;;5056000;28;20240;-66
2021/09/30 10:21:04;;;;;;;0.10;0.10;;;;;;;;;;5061982;28;20398;-65
2021/09/30 10:23:31;;;;;;;0.10;0.10;;;;;;;;;;5064886;28;20198;-66
2021/09/30 10:26:00;;;;;;;0.10;0.10;;;;;;;;;;5065333;28;20203;-65
2021/09/30 10:28:26;;;;;;;0.10;0.10;;;;;;;;;;5062817;28;20206;-65
2021/09/30 10:30:54;;;;;;;0.10;0.10;;;;;;;;;;5063510;28;20204;-69
2021/09/30 10:33:23;;;;;;;0.00;0.00;;;;;;;;;;5058988;28;20486;-69
2021/09/30 10:35:52;;;;;;;0.10;0.10;;;;;;;;;;5054597;28;20270;-69
2021/09/30 10:38:19;;;;;;;0.00;0.00;;;;;;;;;;5053857;28;20271;-69
2021/09/30 10:41:06;;;;;;;0.17;0.17;;;;;;;;;;5062946;28;20206;-66
2021/09/30 10:43:33;;;;;;;0.00;0.00;;;;;;;;;;5055423;28;20252;-66
2021/09/30 10:46:01;;;;;;;0.00;0.00;;;;;;;;;;5057405;28;20205;-68
2021/09/30 10:48:40;;;;;;;0.10;0.10;;;;;;;;;;5056232;28;20211;-68
2021/09/30 10:51:08;;;;;;;0.10;0.10;;;;;;;;;;5060398;28;20232;-66
2021/09/30 10:53:53;;;;;;;0.10;0.10;;;;;;;;;;5059337;28;20392;-67
2021/09/30 10:56:38;;;;;;;0.05;0.05;;;;;;;;;;5058719;28;20274;-68
2021/09/30 10:59:35;;;;;;;0.10;0.10;;;;;;;;;;5061984;28;20199;-70
2021/09/30 11:02:03;;;;;;;0.10;0.10;;;;;;;;;;5064433;28;20201;-71
2021/09/30 11:04:49;;;;;;;0.10;0.10;;;;;;;;;;5059321;28;20249;-70
2021/09/30 11:07:16;;;;;;;0.10;0.10;;;;;;;;;;5062033;28;20266;-71
2021/09/30 11:09:42;;;;;;;0.10;0.10;;;;;;;;;;5061713;28;20215;-73
2021/09/30 11:12:09;;;;;;;0.10;0.10;;;;;;;;;;5049139;28;20233;-71
2021/09/30 11:14:50;;;;;;;0.00;0.00;;;;;;;;;;5050951;28;20308;-72
2021/09/30 11:17:33;;;;;;;0.10;0.10;;;;;;;;;;5052896;28;20557;-73
2021/09/30 11:20:28;;;;;;;0.00;0.00;;;;;;;;;;5062730;28;20279;-73
2021/09/30 11:22:55;;;;;;;0.10;0.10;;;;;;;;;;5049872;28;20197;-71
2021/09/30 11:25:21;;;;;;;0.10;0.10;;;;;;;;;;5054500;28;20270;-74
2021/09/30 11:28:08;;;;;;;0.10;0.10;;;;;;;;;;5052484;28;20206;-73
2021/09/30 11:30:34;;;;;;;0.10;0.10;;;;;;;;;;5055437;28;20267;-72
2021/09/30 11:33:07;;;;;;;0.10;0.10;;;;;;;;;;5052914;28;20527;-74
2021/09/30 11:35:33;;;;;;;0.10;0.10;;;;;;;;;;5064490;28;20213;-73
2021/09/30 11:38:03;;;;;;;0.10;0.10;;;;;;;;;;5055147;28;20220;-74
2021/09/30 11:40:29;;;;;;;0.10;0.10;;;;;;;;;;5051839;28;20207;-73
2021/09/30 11:42:55;;;;;;;0.10;0.10;;;;;;;;;;5044550;28;20203;-71
2021/09/30 11:45:23;;;;;;;0.00;0.00;;;;;;;;;;5050418;28;20200;-73
2021/09/30 11:47:50;;;;;;;0.10;0.10;;;;;;;;;;5056086;28;20491;-69
2021/09/30 11:50:18;;;;;;;0.10;0.10;;;;;;;;;;5052690;28;20248;-69
2021/09/30 11:52:44;;;;;;;0.10;0.10;;;;;;;;;;5059728;28;20230;-68
2021/09/30 11:55:17;;;;;;;0.10;0.10;;;;;;;;;;5064435;28;20205;-69
2021/09/30 11:57:53;;;;;;;0.10;0.10;;;;;;;;;;5064281;28;20282;-69
2021/09/30 12:00:19;;;;;;;0.10;0.10;;;;;;;;;;5044077;28;20209;-70
2021/09/30 12:03:06;;;;;;;0.10;0.10;;;;;;;;;;5047449;28;20198;-70
2021/09/30 12:05:35;;;;;;;0.10;0.10;;;;;;;;;;5055234;28;20239;-67
2021/09/30 12:08:04;;;;;;;0.10;0.10;;;;;;;;;;5044433;28;20210;-68
2021/09/30 12:10:33;;;;;;;0.03;0.03;;;;;;;;;;5056180;28;20281;-68
2021/09/30 12:12:59;;;;;;;0.10;0.10;;;;;;;;;;5063859;28;20233;-62
2021/09/30 12:15:26;;;;;;;0.10;0.10;;;;;;;;;;5063049;28;20234;-62
2021/09/30 12:17:52;;;;;;;0.10;0.10;;;;;;;;;;5049443;28;20274;-63
2021/09/30 12:20:19;;;;;;;0.10;0.10;;;;;;;;;;5056968;28;20453;-63
2021/09/30 12:22:47;;;;;;;0.10;0.10;;;;;;;;;;5051900;28;20203;-60
2021/09/30 12:25:15;;;;;;;0.10;0.10;;;;;;;;;;5052870;28;20264;-61
2021/09/30 12:27:44;;;;;;;0.10;0.10;;;;;;;;;;5058556;28;20212;-62
2021/09/30 12:30:13;;;;;;;0.03;0.03;;;;;;;;;;5062916;28;20282;-61
2021/09/30 12:32:41;;;;;;;0.10;0.10;;;;;;;;;;5063307;28;20228;-62
2021/09/30 12:35:08;;;;;;;0.10;0.10;;;;;;;;;;5046146;28;20342;-61
2021/09/30 12:37:35;;;;;;;0.10;0.10;;;;;;;;;;5043850;28;20259;-61
2021/09/30 12:40:04;;;;;;;0.10;0.10;;;;;;;;;;5057349;28;20275;-60
2021/09/30 12:42:31;;;;;;;0.10;0.10;;;;;;;;;;5045525;28;20224;-60
2021/09/30 12:44:59;;;;;;;0.10;0.10;;;;;;;;;;5054299;28;20322;-62
2021/09/30 12:47:32;;;;;;;0.00;0.00;;;;;;;;;;5060968;28;20279;-61
2021/09/30 12:50:00;;;;;;;0.10;0.10;;;;;;;;;;5063515;28;20199;-61
2021/09/30 12:52:26;;;;;;;0.03;0.03;;;;;;;;;;5052840;28;20433;-64
2021/09/30 12:54:52;;;;;;;0.10;0.10;;;;;;;;;;5063616;28;20353;-64
2021/09/30 12:57:19;;;;;;;0.10;0.10;;;;;;;;;;5052538;28;20208;-61
2021/09/30 13:00:10;;;;;;;0.10;0.10;;;;;;;;;;5063386;28;20200;-63
2021/09/30 13:02:37;;;;;;;0.00;0.00;;;;;;;;;;5052442;28;20270;-62
2021/09/30 13:05:03;;;;;;;0.05;0.05;;;;;;;;;;5054418;28;20201;-64
2021/09/30 13:07:43;;;;;;;0.10;0.10;;;;;;;;;;5052044;28;20207;-60
2021/09/30 13:10:09;;;;;;;0.10;0.10;;;;;;;;;;5049850;28;20238;-60
2021/09/30 13:12:36;;;;;;;0.10;0.10;;;;;;;;;;5050397;28;20220;-59
2021/09/30 13:15:02;;;;;;;0.10;0.10;;;;;;;;;;5051488;28;20253;-60
2021/09/30 13:17:30;;;;;;;0.10;0.10;;;;;;;;;;5051200;28;20257;-60
2021/09/30 13:19:57;;;;;;;0.10;0.10;;;;;;;;;;5052979;28;20299;-59
2021/09/30 13:22:25;;;;;;;0.10;0.10;;;;;;;;;;5044722;28;20482;-58
2021/09/30 13:24:53;;;;;;;0.10;0.10;;;;;;;;;;5050478;28;20244;-59
2021/09/30 13:27:20;;;;;;;0.10;0.10;;;;;;;;;;5042951;28;20261;-59
2021/09/30 13:29:47;;;;;;;0.10;0.10;;;;;;;;;;5043912;28;20292;-59
2021/09/30 13:32:13;;;;;;;0.30;0.30;;;;;;;;;;5043581;28;20281;-59
2021/09/30 13:34:41;;;;;;;0.10;0.10;;;;;;;;;;5045627;28;20355;-60
2021/09/30 13:37:08;;;;;;;0.10;0.10;;;;;;;;;;5046385;28;21264;-59
2021/09/30 13:39:34;;;;;;;0.45;0.45;;;;;;;;;;5062444;28;20431;-60
2021/09/30 13:42:00;;;;;;;0.10;0.10;;;;;;;;;;5057624;28;20263;-60
2021/09/30 13:44:27;;;;;;;0.10;0.10;;;;;;;;;;5061408;28;20368;-60
2021/09/30 13:46:53;;;;;;;0.10;0.10;;;;;;;;;;5055547;28;20286;-59
2021/09/30 13:49:20;;;;;;;0.10;0.10;;;;;;;;;;5055777;28;20216;-61
2021/09/30 13:51:47;;;;;;;0.00;0.00;;;;;;;;;;5062176;28;20246;-60
2021/09/30 13:54:13;;;;;;;0.03;0.03;;;;;;;;;;5058637;28;20216;-61
2021/09/30 13:56:40;;;;;;;0.10;0.10;;;;;;;;;;5054667;28;20206;-60
2021/09/30 13:59:06;;;;;;;0.10;0.10;;;;;;;;;;5059793;28;20253;-59
2021/09/30 14:01:32;;;;;;;0.10;0.10;;;;;;;;;;5058268;28;20246;-59
2021/09/30 14:03:59;;;;;;;0.00;0.00;;;;;;;;;;5066116;28;20203;-58
2021/09/30 14:06:25;;;;;;;0.10;0.10;;;;;;;;;;5053489;28;20493;-61
2021/09/30 14:08:53;;;;;;;0.00;0.00;;;;;;;;;;5058566;28;20207;-60
2021/09/30 14:11:21;;;;;;;0.05;0.05;;;;;;;;;;5056232;28;20219;-60
2021/09/30 14:13:47;;;;;;;0.03;0.03;;;;;;;;;;5065762;28;20235;-59
2021/09/30 14:16:13;;;;;;;0.10;0.10;;;;;;;;;;5054508;28;20215;-60
2021/09/30 14:18:40;;;;;;;0.10;0.10;;;;;;;;;;5065797;28;20204;-59
2021/09/30 14:21:06;;;;;;;0.10;0.10;;;;;;;;;;5062055;28;20208;-59
2021/09/30 14:23:32;;;;;;;0.05;0.05;;;;;;;;;;5050443;28;20197;-61
2021/09/30 14:26:00;;;;;;;0.28;0.28;;;;;;;;;;5050943;28;20211;-58
2021/09/30 14:28:27;;;;;;;0.00;0.00;;;;;;;;;;5049506;28;20215;-61
2021/09/30 14:30:55;;;;;;;0.10;0.10;;;;;;;;;;5056486;28;20500;-60
2021/09/30 14:33:22;;;;;;;0.10;0.10;;;;;;;;;;5056513;28;20580;-60
2021/09/30 14:35:48;;;;;;;0.00;0.00;;;;;;;;;;5052423;28;20207;-60
2021/09/30 14:38:14;;;;;;;0.10;0.10;;;;;;;;;;5052738;28;20429;-62
2021/09/30 14:40:48;;;;;;;0.00;0.00;;;;;;;;;;5052363;28;20496;-60
2021/09/30 14:43:15;;;;;;;0.10;0.10;;;;;;;;;;5050329;28;20200;-60
2021/09/30 14:45:41;;;;;;;0.10;0.10;;;;;;;;;;5054005;28;20484;-60
2021/09/30 14:48:09;;;;;;;0.10;0.10;;;;;;;;;;5065040;28;20210;-60
2021/09/30 14:50:35;;;;;;;0.10;0.10;;;;;;;;;;5064656;28;20424;-61
2021/09/30 14:53:01;;;;;;;0.10;0.10;;;;;;;;;;5064050;28;20235;-60
2021/09/30 14:55:27;;;;;;;0.10;0.10;;;;;;;;;;5062522;28;20226;-60
2021/09/30 14:57:54;;;;;;;0.10;0.10;;;;;;;;;;5062759;28;20229;-61
2021/09/30 15:00:21;;;;;;;0.10;0.10;;;;;;;;;;5064744;28;20413;-60
2021/09/30 15:02:48;;;;;;;0.00;0.00;;;;;;;;;;5057012;28;20233;-61
2021/09/30 15:05:14;;;;;;;0.00;0.00;;;;;;;;;;5057530;28;20253;-60
2021/09/30 15:07:41;;;;;;;0.10;0.10;;;;;;;;;;5050122;28;20265;-60
2021/09/30 15:10:08;;;;;;;0.03;0.03;;;;;;;;;;5064646;28;20488;-60
2021/09/30 15:12:34;;;;;;;0.10;0.10;;;;;;;;;;5064418;28;20415;-60
2021/09/30 15:15:01;;;;;;;0.10;0.10;;;;;;;;;;5059082;28;20204;-59
2021/09/30 15:17:34;;;;;;;0.00;0.00;;;;;;;;;;5059074;28;20207;-61
2021/09/30 15:20:13;;;;;;;0.10;0.10;;;;;;;;;;5059712;28;20223;-61
2021/09/30 15:22:41;;;;;;;0.10;0.10;;;;;;;;;;5055401;28;20190;-61
2021/09/30 15:25:08;;;;;;;0.40;0.40;;;;;;;;;;5061859;28;20202;-61
2021/09/30 15:27:34;;;;;;;0.00;0.00;;;;;;;;;;5048300;28;20209;-61
2021/09/30 15:30:01;;;;;;;0.10;0.10;;;;;;;;;;5060753;28;20253;-61
2021/09/30 15:32:29;;;;;;;0.10;0.10;;;;;;;;;;5062051;28;20200;-62
2021/09/30 15:34:55;;;;;;;0.10;0.10;;;;;;;;;;5064734;28;20545;-61
2021/09/30 15:37:22;;;;;;;0.03;0.03;;;;;;;;;;5052462;28;20255;-63
2021/09/30 15:39:48;;;;;;;0.07;0.07;;;;;;;;;;5049601;28;20269;-62
2021/09/30 15:42:16;;;;;;;0.10;0.10;;;;;;;;;;5059326;28;20275;-63
2021/09/30 15:44:42;;;;;;;0.07;0.07;;;;;;;;;;5056971;28;20214;-61
2021/09/30 15:47:09;;;;;;;0.10;0.10;;;;;;;;;;5058481;28;20388;-61
2021/09/30 15:49:36;;;;;;;0.10;0.10;;;;;;;;;;5054890;28;20464;-61
2021/09/30 15:52:03;;;;;;;0.10;0.10;;;;;;;;;;5063732;28;20264;-61
2021/09/30 15:54:29;;;;;;;0.10;0.10;;;;;;;;;;5051439;28;20415;-61
2021/09/30 15:56:55;;;;;;;0.00;0.00;;;;;;;;;;5050275;28;20252;-61
2021/09/30 15:59:22;;;;;;;0.10;0.10;;;;;;;;;;5060338;28;20266;-63
2021/09/30 16:01:48;;;;;;;0.10;0.10;;;;;;;;;;5055574;28;20207;-61
2021/09/30 16:04:14;;;;;;;0.10;0.10;;;;;;;;;;5063075;28;20497;-64
2021/09/30 16:06:42;;;;;;;0.10;0.10;;;;;;;;;;5063426;28;20223;-61
2021/09/30 16:09:08;;;;;;;0.10;0.10;;;;;;;;;;5063794;28;20209;-61
2021/09/30 16:11:34;;;;;;;0.10;0.10;;;;;;;;;;5058976;28;20221;-61
2021/09/30 16:14:00;;;;;;;0.10;0.10;;;;;;;;;;5059461;28;20270;-61
2021/09/30 16:16:27;;;;;;;0.10;0.10;;;;;;;;;;5051622;28;20206;-62
2021/09/30 16:18:53;;;;;;;0.10;0.10;;;;;;;;;;5048910;28;20492;-62
2021/09/30 16:21:19;;;;;;;0.10;0.10;;;;;;;;;;5048384;28;20389;-61
2021/09/30 16:23:47;;;;;;;0.10;0.10;;;;;;;;;;5045393;28;20225;-61
2021/09/30 16:26:19;;;;;;;0.10;0.10;;;;;;;;;;5054958;28;20209;-61
2021/09/30 16:28:45;;;;;;;0.10;0.10;;;;;;;;;;5043462;28;20202;-61
2021/09/30 16:31:12;;;;;;;0.10;0.10;;;;;;;;;;5050979;28;20400;-61
2021/09/30 16:33:38;;;;;;;0.10;0.10;;;;;;;;;;5049420;28;20569;-62
2021/09/30 16:36:04;;;;;;;0.10;0.10;;;;;;;;;;5044761;28;20250;-62
2021/09/30 16:38:31;;;;;;;0.10;0.10;;;;;;;;;;5055771;28;20272;-61
2021/09/30 16:40:58;;;;;;;0.10;0.10;;;;;;;;;;5046153;28;20255;-61
2021/09/30 16:43:24;;;;;;;0.10;0.10;;;;;;;;;;5049245;28;20205;-62
2021/09/30 16:45:51;;;;;;;0.00;0.00;;;;;;;;;;5052145;28;20206;-62
2021/09/30 16:48:18;;;;;;;0.10;0.10;;;;;;;;;;5058987;28;20218;-62
2021/09/30 16:50:44;;;;;;;0.10;0.10;;;;;;;;;;5049024;28;20239;-61
2021/09/30 16:53:13;;;;;;;0.10;0.10;;;;;;;;;;5051631;28;20243;-64
2021/09/30 16:55:39;;;;;;;0.10;0.10;;;;;;;;;;5048104;28;20237;-63
2021/09/30 16:58:07;;;;;;;0.10;0.10;;;;;;;;;;5047230;28;20247;-63
2021/09/30 17:00:34;;;;;;;0.10;0.10;;;;;;;;;;5043965;28;20442;-64
2021/09/30 17:03:00;;;;;;;0.10;0.10;;;;;;;;;;5054550;28;20227;-62
2021/09/30 17:05:26;;;;;;;0.10;0.10;;;;;;;;;;5059857;28;20223;-64
2021/09/30 17:07:53;;;;;;;0.10;0.10;;;;;;;;;;5056161;28;20211;-63
2021/09/30 17:10:19;;;;;;;0.10;0.10;;;;;;;;;;5051739;28;20207;-61